sensor_id;sensor_type;location;lat;lon;timestamp;P1;durP1;ratioP1;P2;durP2;ratioP2
43678;SDS011;29279;50.858;4.392;2023-12-22T00:01:21;27.55;;;5.72;;
43678;SDS011;29279;50.858;4.392;2023-12-22T00:03:46;25.20;;;4.32;;
43678;SDS011;29279;50.858;4.392;2023-12-22T00:06:12;26.67;;;5.32;;
43678;SDS011;29279;50.858;4.392;2023-12-22T00:08:38;20.98;;;4.53;;
43678;SDS011;29279;50.858;4.392;2023-12-22T00:11:04;17.92;;;3.70;;
43678;SDS011;29279;50.858;4.392;2023-12-22T00:13:29;25.10;;;4.22;;
43678;SDS011;29279;50.858;4.392;2023-12-22T00:15:57;22.20;;;4.10;;
43678;SDS011;29279;50.858;4.392;2023-12-22T00:18:23;27.38;;;4.68;;
43678;SDS011;29279;50.858;4.392;2023-12-22T00:20:49;18.05;;;3.53;;
43678;SDS011;29279;50.858;4.392;2023-12-22T00:23:14;25.40;;;3.95;;
43678;SDS011;29279;50.858;4.392;2023-12-22T00:25:40;20.45;;;4.38;;
43678;SDS011;29279;50.858;4.392;2023-12-22T00:28:05;15.27;;;3.15;;
43678;SDS011;29279;50.858;4.392;2023-12-22T00:30:31;23.77;;;4.35;;
43678;SDS011;29279;50.858;4.392;2023-12-22T00:32:57;20.23;;;3.70;;
43678;SDS011;29279;50.858;4.392;2023-12-22T00:35:22;14.73;;;3.10;;
43678;SDS011;29279;50.858;4.392;2023-12-22T00:37:48;16.58;;;3.45;;
43678;SDS011;29279;50.858;4.392;2023-12-22T00:40:14;14.93;;;3.70;;
43678;SDS011;29279;50.858;4.392;2023-12-22T00:42:39;21.48;;;3.38;;
43678;SDS011;29279;50.858;4.392;2023-12-22T00:45:05;22.48;;;3.78;;
43678;SDS011;29279;50.858;4.392;2023-12-22T00:47:31;22.70;;;3.95;;
43678;SDS011;29279;50.858;4.392;2023-12-22T00:49:59;28.40;;;5.38;;
43678;SDS011;29279;50.858;4.392;2023-12-22T00:52:25;31.75;;;4.90;;
43678;SDS011;29279;50.858;4.392;2023-12-22T00:54:51;22.50;;;4.25;;
43678;SDS011;29279;50.858;4.392;2023-12-22T00:57:17;28.02;;;4.70;;
43678;SDS011;29279;50.858;4.392;2023-12-22T00:59:43;21.63;;;4.22;;
43678;SDS011;29279;50.858;4.392;2023-12-22T01:02:12;27.38;;;4.72;;
43678;SDS011;29279;50.858;4.392;2023-12-22T01:04:41;29.88;;;4.78;;
43678;SDS011;29279;50.858;4.392;2023-12-22T01:07:07;29.35;;;5.28;;
43678;SDS011;29279;50.858;4.392;2023-12-22T01:09:33;25.10;;;4.78;;
43678;SDS011;29279;50.858;4.392;2023-12-22T01:12:01;28.50;;;4.78;;
43678;SDS011;29279;50.858;4.392;2023-12-22T01:14:29;25.10;;;4.80;;
43678;SDS011;29279;50.858;4.392;2023-12-22T01:16:54;32.85;;;4.88;;
43678;SDS011;29279;50.858;4.392;2023-12-22T01:19:20;32.47;;;5.90;;
43678;SDS011;29279;50.858;4.392;2023-12-22T01:21:46;32.45;;;5.93;;
43678;SDS011;29279;50.858;4.392;2023-12-22T01:24:11;36.67;;;6.00;;
43678;SDS011;29279;50.858;4.392;2023-12-22T01:26:37;22.35;;;5.30;;
43678;SDS011;29279;50.858;4.392;2023-12-22T01:29:03;29.30;;;4.43;;
43678;SDS011;29279;50.858;4.392;2023-12-22T01:31:28;38.90;;;5.70;;
43678;SDS011;29279;50.858;4.392;2023-12-22T01:33:54;35.97;;;5.03;;
43678;SDS011;29279;50.858;4.392;2023-12-22T01:36:20;30.85;;;5.43;;
43678;SDS011;29279;50.858;4.392;2023-12-22T01:38:45;27.73;;;4.93;;
43678;SDS011;29279;50.858;4.392;2023-12-22T01:41:11;28.63;;;4.55;;
43678;SDS011;29279;50.858;4.392;2023-12-22T01:43:37;29.17;;;5.53;;
43678;SDS011;29279;50.858;4.392;2023-12-22T01:46:02;37.30;;;5.20;;
43678;SDS011;29279;50.858;4.392;2023-12-22T01:48:29;39.15;;;5.60;;
43678;SDS011;29279;50.858;4.392;2023-12-22T01:50:55;30.60;;;5.32;;
43678;SDS011;29279;50.858;4.392;2023-12-22T01:53:24;26.15;;;4.72;;
43678;SDS011;29279;50.858;4.392;2023-12-22T01:55:50;40.55;;;6.82;;
43678;SDS011;29279;50.858;4.392;2023-12-22T01:58:18;28.67;;;5.68;;
43678;SDS011;29279;50.858;4.392;2023-12-22T02:00:45;35.47;;;5.32;;
43678;SDS011;29279;50.858;4.392;2023-12-22T02:03:11;30.13;;;5.00;;
43678;SDS011;29279;50.858;4.392;2023-12-22T02:05:40;31.73;;;5.75;;
43678;SDS011;29279;50.858;4.392;2023-12-22T02:08:06;39.80;;;7.00;;
43678;SDS011;29279;50.858;4.392;2023-12-22T02:10:32;48.88;;;5.88;;
43678;SDS011;29279;50.858;4.392;2023-12-22T02:12:58;38.90;;;6.43;;
43678;SDS011;29279;50.858;4.392;2023-12-22T02:15:24;37.90;;;5.63;;
43678;SDS011;29279;50.858;4.392;2023-12-22T02:20:30;29.25;;;5.70;;
43678;SDS011;29279;50.858;4.392;2023-12-22T02:22:57;35.22;;;5.30;;
43678;SDS011;29279;50.858;4.392;2023-12-22T02:25:22;39.80;;;5.68;;
43678;SDS011;29279;50.858;4.392;2023-12-22T02:27:49;29.48;;;4.43;;
43678;SDS011;29279;50.858;4.392;2023-12-22T02:33:13;24.75;;;4.18;;
43678;SDS011;29279;50.858;4.392;2023-12-22T02:35:40;31.77;;;5.57;;
43678;SDS011;29279;50.858;4.392;2023-12-22T02:38:08;26.00;;;5.32;;
43678;SDS011;29279;50.858;4.392;2023-12-22T02:40:35;29.75;;;4.22;;
43678;SDS011;29279;50.858;4.392;2023-12-22T02:43:01;29.20;;;4.50;;
43678;SDS011;29279;50.858;4.392;2023-12-22T02:45:27;24.25;;;4.18;;
43678;SDS011;29279;50.858;4.392;2023-12-22T02:47:55;27.48;;;4.15;;
43678;SDS011;29279;50.858;4.392;2023-12-22T02:50:20;30.23;;;4.20;;
43678;SDS011;29279;50.858;4.392;2023-12-22T02:52:46;18.05;;;3.95;;
43678;SDS011;29279;50.858;4.392;2023-12-22T02:55:12;19.38;;;3.00;;
43678;SDS011;29279;50.858;4.392;2023-12-22T02:57:38;16.88;;;3.58;;
43678;SDS011;29279;50.858;4.392;2023-12-22T03:00:04;21.70;;;3.25;;
43678;SDS011;29279;50.858;4.392;2023-12-22T03:02:30;14.10;;;2.97;;
43678;SDS011;29279;50.858;4.392;2023-12-22T03:04:56;20.20;;;3.17;;
43678;SDS011;29279;50.858;4.392;2023-12-22T03:07:21;15.68;;;2.95;;
43678;SDS011;29279;50.858;4.392;2023-12-22T03:09:47;16.40;;;3.33;;
43678;SDS011;29279;50.858;4.392;2023-12-22T03:12:14;23.98;;;3.65;;
43678;SDS011;29279;50.858;4.392;2023-12-22T03:14:39;17.52;;;3.40;;
43678;SDS011;29279;50.858;4.392;2023-12-22T03:17:05;18.67;;;3.10;;
43678;SDS011;29279;50.858;4.392;2023-12-22T03:19:32;23.63;;;3.95;;
43678;SDS011;29279;50.858;4.392;2023-12-22T03:21:58;23.70;;;3.95;;
43678;SDS011;29279;50.858;4.392;2023-12-22T03:24:25;26.35;;;4.28;;
43678;SDS011;29279;50.858;4.392;2023-12-22T03:26:53;22.80;;;3.97;;
43678;SDS011;29279;50.858;4.392;2023-12-22T03:29:18;27.85;;;4.72;;
43678;SDS011;29279;50.858;4.392;2023-12-22T03:31:45;33.25;;;4.72;;
43678;SDS011;29279;50.858;4.392;2023-12-22T03:34:11;26.65;;;4.75;;
43678;SDS011;29279;50.858;4.392;2023-12-22T03:36:37;27.25;;;5.30;;
43678;SDS011;29279;50.858;4.392;2023-12-22T03:39:03;37.25;;;5.50;;
43678;SDS011;29279;50.858;4.392;2023-12-22T03:41:29;31.23;;;4.50;;
43678;SDS011;29279;50.858;4.392;2023-12-22T03:43:56;36.22;;;5.70;;
43678;SDS011;29279;50.858;4.392;2023-12-22T03:46:22;24.73;;;5.50;;
43678;SDS011;29279;50.858;4.392;2023-12-22T03:48:48;33.83;;;5.70;;
43678;SDS011;29279;50.858;4.392;2023-12-22T03:51:14;41.38;;;4.38;;
43678;SDS011;29279;50.858;4.392;2023-12-22T03:53:41;23.55;;;4.60;;
43678;SDS011;29279;50.858;4.392;2023-12-22T03:56:07;25.88;;;5.15;;
43678;SDS011;29279;50.858;4.392;2023-12-22T03:58:34;18.02;;;3.08;;
43678;SDS011;29279;50.858;4.392;2023-12-22T04:01:00;26.70;;;4.18;;
43678;SDS011;29279;50.858;4.392;2023-12-22T04:03:25;30.25;;;3.67;;
43678;SDS011;29279;50.858;4.392;2023-12-22T04:05:51;23.13;;;3.92;;
43678;SDS011;29279;50.858;4.392;2023-12-22T04:08:17;23.77;;;4.15;;
43678;SDS011;29279;50.858;4.392;2023-12-22T04:10:42;28.90;;;4.90;;
43678;SDS011;29279;50.858;4.392;2023-12-22T04:13:09;25.35;;;4.43;;
43678;SDS011;29279;50.858;4.392;2023-12-22T04:15:35;24.77;;;4.20;;
43678;SDS011;29279;50.858;4.392;2023-12-22T04:18:00;24.85;;;4.93;;
43678;SDS011;29279;50.858;4.392;2023-12-22T04:20:26;28.92;;;4.35;;
43678;SDS011;29279;50.858;4.392;2023-12-22T04:22:52;26.23;;;4.28;;
43678;SDS011;29279;50.858;4.392;2023-12-22T04:25:17;27.70;;;5.97;;
43678;SDS011;29279;50.858;4.392;2023-12-22T04:27:43;41.40;;;5.88;;
43678;SDS011;29279;50.858;4.392;2023-12-22T04:30:09;30.20;;;4.50;;
43678;SDS011;29279;50.858;4.392;2023-12-22T04:32:35;38.28;;;6.63;;
43678;SDS011;29279;50.858;4.392;2023-12-22T04:35:01;44.47;;;5.97;;
43678;SDS011;29279;50.858;4.392;2023-12-22T04:37:27;37.03;;;5.63;;
43678;SDS011;29279;50.858;4.392;2023-12-22T04:39:53;40.80;;;6.40;;
43678;SDS011;29279;50.858;4.392;2023-12-22T04:42:18;43.70;;;6.25;;
43678;SDS011;29279;50.858;4.392;2023-12-22T04:44:44;35.95;;;6.85;;
43678;SDS011;29279;50.858;4.392;2023-12-22T04:47:10;43.55;;;7.00;;
43678;SDS011;29279;50.858;4.392;2023-12-22T04:49:37;33.65;;;5.97;;
43678;SDS011;29279;50.858;4.392;2023-12-22T04:52:03;49.30;;;6.30;;
43678;SDS011;29279;50.858;4.392;2023-12-22T04:54:29;33.03;;;5.38;;
43678;SDS011;29279;50.858;4.392;2023-12-22T04:56:55;37.60;;;5.72;;
43678;SDS011;29279;50.858;4.392;2023-12-22T04:59:20;43.63;;;8.43;;
43678;SDS011;29279;50.858;4.392;2023-12-22T05:01:46;42.10;;;6.90;;
43678;SDS011;29279;50.858;4.392;2023-12-22T05:04:12;29.38;;;5.05;;
43678;SDS011;29279;50.858;4.392;2023-12-22T05:06:37;45.58;;;7.38;;
43678;SDS011;29279;50.858;4.392;2023-12-22T05:09:04;44.17;;;6.43;;
43678;SDS011;29279;50.858;4.392;2023-12-22T05:11:29;49.90;;;6.70;;
43678;SDS011;29279;50.858;4.392;2023-12-22T05:13:55;35.47;;;6.35;;
43678;SDS011;29279;50.858;4.392;2023-12-22T05:16:20;46.05;;;6.28;;
43678;SDS011;29279;50.858;4.392;2023-12-22T05:18:46;45.47;;;7.25;;
43678;SDS011;29279;50.858;4.392;2023-12-22T05:21:12;41.67;;;5.93;;
43678;SDS011;29279;50.858;4.392;2023-12-22T05:23:39;45.95;;;7.47;;
43678;SDS011;29279;50.858;4.392;2023-12-22T05:26:05;42.92;;;6.85;;
43678;SDS011;29279;50.858;4.392;2023-12-22T05:28:31;55.40;;;7.53;;
43678;SDS011;29279;50.858;4.392;2023-12-22T05:30:57;48.00;;;7.95;;
43678;SDS011;29279;50.858;4.392;2023-12-22T05:33:23;47.10;;;6.75;;
43678;SDS011;29279;50.858;4.392;2023-12-22T05:35:48;60.22;;;7.40;;
43678;SDS011;29279;50.858;4.392;2023-12-22T05:38:14;37.67;;;7.00;;
43678;SDS011;29279;50.858;4.392;2023-12-22T05:40:40;39.58;;;7.68;;
43678;SDS011;29279;50.858;4.392;2023-12-22T05:43:06;49.63;;;7.93;;
43678;SDS011;29279;50.858;4.392;2023-12-22T05:45:32;46.72;;;7.50;;
43678;SDS011;29279;50.858;4.392;2023-12-22T05:47:57;42.20;;;7.25;;
43678;SDS011;29279;50.858;4.392;2023-12-22T05:50:23;48.60;;;8.57;;
43678;SDS011;29279;50.858;4.392;2023-12-22T05:52:49;46.70;;;7.63;;
43678;SDS011;29279;50.858;4.392;2023-12-22T05:55:14;43.67;;;6.45;;
43678;SDS011;29279;50.858;4.392;2023-12-22T05:57:40;45.35;;;7.32;;
43678;SDS011;29279;50.858;4.392;2023-12-22T06:00:06;37.33;;;6.65;;
43678;SDS011;29279;50.858;4.392;2023-12-22T06:02:35;44.35;;;7.55;;
43678;SDS011;29279;50.858;4.392;2023-12-22T06:05:00;37.28;;;7.35;;
43678;SDS011;29279;50.858;4.392;2023-12-22T06:07:26;41.95;;;6.80;;
43678;SDS011;29279;50.858;4.392;2023-12-22T06:09:52;40.63;;;6.07;;
43678;SDS011;29279;50.858;4.392;2023-12-22T06:12:18;43.78;;;7.30;;
43678;SDS011;29279;50.858;4.392;2023-12-22T06:14:43;31.38;;;5.55;;
43678;SDS011;29279;50.858;4.392;2023-12-22T06:17:09;38.17;;;6.28;;
43678;SDS011;29279;50.858;4.392;2023-12-22T06:19:35;28.15;;;4.47;;
43678;SDS011;29279;50.858;4.392;2023-12-22T06:22:01;35.08;;;5.57;;
43678;SDS011;29279;50.858;4.392;2023-12-22T06:24:27;27.42;;;5.50;;
43678;SDS011;29279;50.858;4.392;2023-12-22T06:26:52;32.92;;;5.68;;
43678;SDS011;29279;50.858;4.392;2023-12-22T06:29:18;29.77;;;4.97;;
43678;SDS011;29279;50.858;4.392;2023-12-22T06:31:44;34.72;;;5.95;;
43678;SDS011;29279;50.858;4.392;2023-12-22T06:34:10;29.35;;;4.45;;
43678;SDS011;29279;50.858;4.392;2023-12-22T06:36:35;32.95;;;5.35;;
43678;SDS011;29279;50.858;4.392;2023-12-22T06:39:01;31.52;;;5.40;;
43678;SDS011;29279;50.858;4.392;2023-12-22T06:41:30;31.88;;;4.70;;
43678;SDS011;29279;50.858;4.392;2023-12-22T06:43:57;26.58;;;4.97;;
43678;SDS011;29279;50.858;4.392;2023-12-22T06:46:26;20.88;;;4.20;;
43678;SDS011;29279;50.858;4.392;2023-12-22T06:48:52;27.83;;;3.92;;
43678;SDS011;29279;50.858;4.392;2023-12-22T06:51:26;24.48;;;4.35;;
43678;SDS011;29279;50.858;4.392;2023-12-22T06:53:57;27.63;;;4.15;;
43678;SDS011;29279;50.858;4.392;2023-12-22T06:56:25;18.73;;;3.30;;
43678;SDS011;29279;50.858;4.392;2023-12-22T06:58:53;23.00;;;3.78;;
43678;SDS011;29279;50.858;4.392;2023-12-22T07:01:21;20.27;;;3.83;;
43678;SDS011;29279;50.858;4.392;2023-12-22T07:03:48;23.75;;;3.95;;
43678;SDS011;29279;50.858;4.392;2023-12-22T07:06:14;28.00;;;3.63;;
43678;SDS011;29279;50.858;4.392;2023-12-22T07:08:41;13.73;;;2.67;;
43678;SDS011;29279;50.858;4.392;2023-12-22T07:11:08;16.42;;;2.80;;
43678;SDS011;29279;50.858;4.392;2023-12-22T07:13:34;22.08;;;3.20;;
43678;SDS011;29279;50.858;4.392;2023-12-22T07:16:00;14.65;;;3.13;;
43678;SDS011;29279;50.858;4.392;2023-12-22T07:18:27;19.00;;;2.83;;
43678;SDS011;29279;50.858;4.392;2023-12-22T07:20:55;19.33;;;2.90;;
43678;SDS011;29279;50.858;4.392;2023-12-22T07:23:22;17.35;;;3.45;;
43678;SDS011;29279;50.858;4.392;2023-12-22T07:25:48;10.98;;;2.65;;
43678;SDS011;29279;50.858;4.392;2023-12-22T07:28:13;17.85;;;2.75;;
43678;SDS011;29279;50.858;4.392;2023-12-22T07:30:40;17.50;;;2.72;;
43678;SDS011;29279;50.858;4.392;2023-12-22T07:33:06;11.65;;;2.55;;
43678;SDS011;29279;50.858;4.392;2023-12-22T07:35:32;18.23;;;2.40;;
43678;SDS011;29279;50.858;4.392;2023-12-22T07:37:57;17.42;;;3.13;;
43678;SDS011;29279;50.858;4.392;2023-12-22T07:40:23;14.23;;;3.13;;
43678;SDS011;29279;50.858;4.392;2023-12-22T07:42:49;12.30;;;2.13;;
43678;SDS011;29279;50.858;4.392;2023-12-22T07:45:15;15.80;;;2.35;;
43678;SDS011;29279;50.858;4.392;2023-12-22T07:47:41;8.48;;;1.95;;
43678;SDS011;29279;50.858;4.392;2023-12-22T07:50:07;10.43;;;2.15;;
43678;SDS011;29279;50.858;4.392;2023-12-22T07:52:34;10.65;;;2.00;;
43678;SDS011;29279;50.858;4.392;2023-12-22T07:55:07;9.73;;;1.75;;
43678;SDS011;29279;50.858;4.392;2023-12-22T07:57:37;9.38;;;2.45;;
43678;SDS011;29279;50.858;4.392;2023-12-22T08:00:03;9.85;;;1.65;;
43678;SDS011;29279;50.858;4.392;2023-12-22T08:02:30;10.10;;;2.58;;
43678;SDS011;29279;50.858;4.392;2023-12-22T08:04:55;9.80;;;2.80;;
43678;SDS011;29279;50.858;4.392;2023-12-22T08:07:22;6.55;;;1.67;;
43678;SDS011;29279;50.858;4.392;2023-12-22T08:09:47;11.55;;;2.13;;
43678;SDS011;29279;50.858;4.392;2023-12-22T08:12:13;9.07;;;2.03;;
43678;SDS011;29279;50.858;4.392;2023-12-22T08:14:38;7.40;;;2.38;;
43678;SDS011;29279;50.858;4.392;2023-12-22T08:17:04;10.15;;;2.67;;
43678;SDS011;29279;50.858;4.392;2023-12-22T08:19:30;9.80;;;1.98;;
43678;SDS011;29279;50.858;4.392;2023-12-22T08:21:55;7.03;;;2.05;;
43678;SDS011;29279;50.858;4.392;2023-12-22T08:24:21;8.20;;;2.40;;
43678;SDS011;29279;50.858;4.392;2023-12-22T08:26:47;7.15;;;2.15;;
43678;SDS011;29279;50.858;4.392;2023-12-22T08:29:13;7.65;;;2.20;;
43678;SDS011;29279;50.858;4.392;2023-12-22T08:31:39;9.65;;;2.70;;
43678;SDS011;29279;50.858;4.392;2023-12-22T08:34:04;11.55;;;2.97;;
43678;SDS011;29279;50.858;4.392;2023-12-22T08:36:30;6.75;;;2.50;;
43678;SDS011;29279;50.858;4.392;2023-12-22T08:38:57;8.85;;;2.60;;
43678;SDS011;29279;50.858;4.392;2023-12-22T08:41:23;8.98;;;2.85;;
43678;SDS011;29279;50.858;4.392;2023-12-22T08:43:49;7.45;;;3.17;;
43678;SDS011;29279;50.858;4.392;2023-12-22T08:46:15;10.75;;;3.58;;
43678;SDS011;29279;50.858;4.392;2023-12-22T08:48:41;10.45;;;4.00;;
43678;SDS011;29279;50.858;4.392;2023-12-22T08:51:07;13.32;;;4.28;;
43678;SDS011;29279;50.858;4.392;2023-12-22T08:53:33;7.35;;;3.50;;
43678;SDS011;29279;50.858;4.392;2023-12-22T08:56:02;9.15;;;3.83;;
43678;SDS011;29279;50.858;4.392;2023-12-22T08:58:28;10.68;;;4.55;;
43678;SDS011;29279;50.858;4.392;2023-12-22T09:00:54;12.52;;;3.60;;
43678;SDS011;29279;50.858;4.392;2023-12-22T09:03:20;11.82;;;3.75;;
43678;SDS011;29279;50.858;4.392;2023-12-22T09:05:45;8.90;;;3.42;;
43678;SDS011;29279;50.858;4.392;2023-12-22T09:08:12;7.90;;;3.03;;
43678;SDS011;29279;50.858;4.392;2023-12-22T09:10:38;11.50;;;3.78;;
43678;SDS011;29279;50.858;4.392;2023-12-22T09:13:04;10.52;;;3.58;;
43678;SDS011;29279;50.858;4.392;2023-12-22T09:15:29;13.73;;;3.33;;
43678;SDS011;29279;50.858;4.392;2023-12-22T09:17:55;9.13;;;2.63;;
43678;SDS011;29279;50.858;4.392;2023-12-22T09:20:21;10.55;;;2.65;;
43678;SDS011;29279;50.858;4.392;2023-12-22T09:22:47;8.45;;;2.60;;
43678;SDS011;29279;50.858;4.392;2023-12-22T09:25:13;14.48;;;2.30;;
43678;SDS011;29279;50.858;4.392;2023-12-22T09:27:39;10.57;;;2.63;;
43678;SDS011;29279;50.858;4.392;2023-12-22T09:30:04;10.60;;;2.28;;
43678;SDS011;29279;50.858;4.392;2023-12-22T09:32:33;17.05;;;2.88;;
43678;SDS011;29279;50.858;4.392;2023-12-22T09:35:00;6.40;;;2.17;;
43678;SDS011;29279;50.858;4.392;2023-12-22T09:37:26;11.00;;;2.20;;
43678;SDS011;29279;50.858;4.392;2023-12-22T09:39:51;9.50;;;2.15;;
43678;SDS011;29279;50.858;4.392;2023-12-22T09:42:18;9.65;;;2.08;;
43678;SDS011;29279;50.858;4.392;2023-12-22T09:44:46;14.27;;;2.10;;
43678;SDS011;29279;50.858;4.392;2023-12-22T09:47:14;9.70;;;1.88;;
43678;SDS011;29279;50.858;4.392;2023-12-22T09:49:42;7.28;;;2.15;;
43678;SDS011;29279;50.858;4.392;2023-12-22T09:52:09;8.60;;;1.60;;
43678;SDS011;29279;50.858;4.392;2023-12-22T09:54:36;6.47;;;1.40;;
43678;SDS011;29279;50.858;4.392;2023-12-22T09:57:05;5.78;;;1.63;;
43678;SDS011;29279;50.858;4.392;2023-12-22T09:59:31;7.97;;;1.63;;
43678;SDS011;29279;50.858;4.392;2023-12-22T10:01:59;5.68;;;1.80;;
43678;SDS011;29279;50.858;4.392;2023-12-22T10:04:25;9.02;;;2.80;;
43678;SDS011;29279;50.858;4.392;2023-12-22T10:06:51;6.60;;;1.40;;
43678;SDS011;29279;50.858;4.392;2023-12-22T10:09:22;7.05;;;1.98;;
43678;SDS011;29279;50.858;4.392;2023-12-22T10:11:49;8.90;;;1.80;;
43678;SDS011;29279;50.858;4.392;2023-12-22T10:14:17;15.02;;;1.65;;
43678;SDS011;29279;50.858;4.392;2023-12-22T10:16:48;7.78;;;1.50;;
43678;SDS011;29279;50.858;4.392;2023-12-22T10:19:17;8.02;;;1.85;;
43678;SDS011;29279;50.858;4.392;2023-12-22T10:21:43;8.32;;;2.15;;
43678;SDS011;29279;50.858;4.392;2023-12-22T10:24:36;8.90;;;1.33;;
43678;SDS011;29279;50.858;4.392;2023-12-22T10:27:01;8.98;;;2.05;;
43678;SDS011;29279;50.858;4.392;2023-12-22T10:29:27;7.82;;;1.70;;
43678;SDS011;29279;50.858;4.392;2023-12-22T10:31:57;7.32;;;1.63;;
43678;SDS011;29279;50.858;4.392;2023-12-22T10:34:23;6.82;;;1.77;;
43678;SDS011;29279;50.858;4.392;2023-12-22T10:36:49;4.25;;;1.48;;
43678;SDS011;29279;50.858;4.392;2023-12-22T10:39:14;5.68;;;1.35;;
43678;SDS011;29279;50.858;4.392;2023-12-22T10:41:40;4.47;;;1.40;;
43678;SDS011;29279;50.858;4.392;2023-12-22T10:44:06;10.93;;;1.92;;
43678;SDS011;29279;50.858;4.392;2023-12-22T10:46:32;9.10;;;1.90;;
43678;SDS011;29279;50.858;4.392;2023-12-22T10:49:00;6.60;;;2.67;;
43678;SDS011;29279;50.858;4.392;2023-12-22T10:51:28;6.03;;;1.98;;
43678;SDS011;29279;50.858;4.392;2023-12-22T10:53:57;14.80;;;2.83;;
43678;SDS011;29279;50.858;4.392;2023-12-22T10:56:23;9.30;;;1.83;;
43678;SDS011;29279;50.858;4.392;2023-12-22T10:58:50;9.48;;;2.33;;
43678;SDS011;29279;50.858;4.392;2023-12-22T11:01:17;7.03;;;1.83;;
43678;SDS011;29279;50.858;4.392;2023-12-22T11:03:45;3.97;;;1.13;;
43678;SDS011;29279;50.858;4.392;2023-12-22T11:06:15;7.07;;;1.40;;
43678;SDS011;29279;50.858;4.392;2023-12-22T11:08:41;4.47;;;1.30;;
43678;SDS011;29279;50.858;4.392;2023-12-22T11:11:13;9.98;;;1.50;;
43678;SDS011;29279;50.858;4.392;2023-12-22T11:13:44;9.27;;;1.42;;
43678;SDS011;29279;50.858;4.392;2023-12-22T11:16:11;5.78;;;1.48;;
43678;SDS011;29279;50.858;4.392;2023-12-22T11:18:37;8.32;;;1.35;;
43678;SDS011;29279;50.858;4.392;2023-12-22T11:21:03;6.10;;;1.50;;
43678;SDS011;29279;50.858;4.392;2023-12-22T11:23:31;13.23;;;2.42;;
43678;SDS011;29279;50.858;4.392;2023-12-22T11:25:58;12.98;;;1.65;;
43678;SDS011;29279;50.858;4.392;2023-12-22T11:28:26;5.00;;;1.27;;
43678;SDS011;29279;50.858;4.392;2023-12-22T11:30:51;5.07;;;0.95;;
43678;SDS011;29279;50.858;4.392;2023-12-22T11:33:19;7.82;;;1.20;;
43678;SDS011;29279;50.858;4.392;2023-12-22T11:35:46;3.95;;;1.33;;
43678;SDS011;29279;50.858;4.392;2023-12-22T11:38:15;9.82;;;1.90;;
43678;SDS011;29279;50.858;4.392;2023-12-22T11:40:40;6.70;;;1.65;;
43678;SDS011;29279;50.858;4.392;2023-12-22T11:43:06;5.40;;;1.33;;
43678;SDS011;29279;50.858;4.392;2023-12-22T11:45:35;8.88;;;1.60;;
43678;SDS011;29279;50.858;4.392;2023-12-22T11:48:10;6.60;;;1.88;;
43678;SDS011;29279;50.858;4.392;2023-12-22T11:50:37;3.72;;;1.17;;
43678;SDS011;29279;50.858;4.392;2023-12-22T11:56:10;9.65;;;1.20;;
43678;SDS011;29279;50.858;4.392;2023-12-22T11:58:38;9.38;;;2.13;;
43678;SDS011;29279;50.858;4.392;2023-12-22T12:01:16;10.73;;;1.75;;
43678;SDS011;29279;50.858;4.392;2023-12-22T12:03:52;6.32;;;1.42;;
43678;SDS011;29279;50.858;4.392;2023-12-22T12:08:54;5.95;;;1.52;;
43678;SDS011;29279;50.858;4.392;2023-12-22T12:11:21;6.43;;;1.40;;
43678;SDS011;29279;50.858;4.392;2023-12-22T12:13:47;6.65;;;1.40;;
43678;SDS011;29279;50.858;4.392;2023-12-22T12:16:14;6.00;;;1.67;;
43678;SDS011;29279;50.858;4.392;2023-12-22T12:18:44;5.93;;;1.20;;
43678;SDS011;29279;50.858;4.392;2023-12-22T12:21:10;7.95;;;1.40;;
43678;SDS011;29279;50.858;4.392;2023-12-22T12:23:37;8.60;;;1.88;;
43678;SDS011;29279;50.858;4.392;2023-12-22T12:26:05;6.88;;;1.88;;
43678;SDS011;29279;50.858;4.392;2023-12-22T12:28:33;6.82;;;1.52;;
43678;SDS011;29279;50.858;4.392;2023-12-22T12:31:04;10.10;;;1.83;;
43678;SDS011;29279;50.858;4.392;2023-12-22T12:33:32;9.40;;;2.22;;
43678;SDS011;29279;50.858;4.392;2023-12-22T12:35:58;10.13;;;2.00;;
43678;SDS011;29279;50.858;4.392;2023-12-22T12:41:29;7.75;;;1.70;;
43678;SDS011;29279;50.858;4.392;2023-12-22T12:44:03;12.27;;;2.08;;
43678;SDS011;29279;50.858;4.392;2023-12-22T12:46:39;11.90;;;2.53;;
43678;SDS011;29279;50.858;4.392;2023-12-22T12:49:09;7.60;;;1.67;;
43678;SDS011;29279;50.858;4.392;2023-12-22T12:51:40;7.68;;;1.67;;
43678;SDS011;29279;50.858;4.392;2023-12-22T12:54:08;10.50;;;1.70;;
43678;SDS011;29279;50.858;4.392;2023-12-22T12:59:10;9.88;;;1.65;;
43678;SDS011;29279;50.858;4.392;2023-12-22T13:01:44;5.70;;;1.80;;
43678;SDS011;29279;50.858;4.392;2023-12-22T13:04:11;6.22;;;1.50;;
43678;SDS011;29279;50.858;4.392;2023-12-22T13:06:47;6.47;;;1.48;;
43678;SDS011;29279;50.858;4.392;2023-12-22T13:09:14;15.40;;;3.17;;
43678;SDS011;29279;50.858;4.392;2023-12-22T13:11:41;8.07;;;1.85;;
43678;SDS011;29279;50.858;4.392;2023-12-22T13:14:08;9.52;;;2.22;;
43678;SDS011;29279;50.858;4.392;2023-12-22T13:16:34;12.40;;;2.00;;
43678;SDS011;29279;50.858;4.392;2023-12-22T13:19:00;15.10;;;3.38;;
43678;SDS011;29279;50.858;4.392;2023-12-22T13:21:26;9.50;;;2.10;;
43678;SDS011;29279;50.858;4.392;2023-12-22T13:24:10;6.43;;;1.63;;
43678;SDS011;29279;50.858;4.392;2023-12-22T13:26:36;10.88;;;2.20;;
43678;SDS011;29279;50.858;4.392;2023-12-22T13:29:03;11.80;;;1.88;;
43678;SDS011;29279;50.858;4.392;2023-12-22T13:31:30;11.02;;;2.10;;
43678;SDS011;29279;50.858;4.392;2023-12-22T13:33:57;5.40;;;1.15;;
43678;SDS011;29279;50.858;4.392;2023-12-22T13:36:25;7.95;;;1.40;;
43678;SDS011;29279;50.858;4.392;2023-12-22T13:38:51;9.80;;;1.90;;
43678;SDS011;29279;50.858;4.392;2023-12-22T13:41:17;6.88;;;1.52;;
43678;SDS011;29279;50.858;4.392;2023-12-22T13:43:43;5.95;;;1.50;;
43678;SDS011;29279;50.858;4.392;2023-12-22T13:46:13;12.30;;;2.08;;
43678;SDS011;29279;50.858;4.392;2023-12-22T13:48:42;11.13;;;1.90;;
43678;SDS011;29279;50.858;4.392;2023-12-22T13:51:08;11.40;;;2.97;;
43678;SDS011;29279;50.858;4.392;2023-12-22T13:53:35;8.07;;;1.67;;
43678;SDS011;29279;50.858;4.392;2023-12-22T13:56:11;9.13;;;1.85;;
43678;SDS011;29279;50.858;4.392;2023-12-22T13:58:43;7.53;;;1.33;;
43678;SDS011;29279;50.858;4.392;2023-12-22T14:01:12;8.60;;;1.73;;
43678;SDS011;29279;50.858;4.392;2023-12-22T14:03:40;8.75;;;2.08;;
43678;SDS011;29279;50.858;4.392;2023-12-22T14:06:06;7.88;;;2.00;;
43678;SDS011;29279;50.858;4.392;2023-12-22T14:08:34;7.47;;;2.22;;
43678;SDS011;29279;50.858;4.392;2023-12-22T14:11:04;6.65;;;1.65;;
43678;SDS011;29279;50.858;4.392;2023-12-22T14:13:30;9.48;;;1.83;;
43678;SDS011;29279;50.858;4.392;2023-12-22T14:15:56;7.30;;;1.38;;
43678;SDS011;29279;50.858;4.392;2023-12-22T14:18:22;7.65;;;1.92;;
43678;SDS011;29279;50.858;4.392;2023-12-22T14:20:48;7.75;;;1.80;;
43678;SDS011;29279;50.858;4.392;2023-12-22T14:23:13;8.52;;;1.73;;
43678;SDS011;29279;50.858;4.392;2023-12-22T14:25:42;6.85;;;1.58;;
43678;SDS011;29279;50.858;4.392;2023-12-22T14:28:08;13.45;;;2.53;;
43678;SDS011;29279;50.858;4.392;2023-12-22T14:30:33;10.68;;;1.58;;
43678;SDS011;29279;50.858;4.392;2023-12-22T14:32:59;9.70;;;2.10;;
43678;SDS011;29279;50.858;4.392;2023-12-22T14:35:25;7.25;;;1.77;;
43678;SDS011;29279;50.858;4.392;2023-12-22T14:37:50;9.73;;;2.03;;
43678;SDS011;29279;50.858;4.392;2023-12-22T14:40:16;7.50;;;1.65;;
43678;SDS011;29279;50.858;4.392;2023-12-22T14:42:42;5.53;;;1.85;;
43678;SDS011;29279;50.858;4.392;2023-12-22T14:45:07;10.73;;;1.60;;
43678;SDS011;29279;50.858;4.392;2023-12-22T14:47:34;7.90;;;1.30;;
43678;SDS011;29279;50.858;4.392;2023-12-22T14:50:00;4.35;;;1.02;;
43678;SDS011;29279;50.858;4.392;2023-12-22T14:52:32;10.25;;;1.83;;